Time;durP1;ratioP1;P1;durP2;ratioP2;P2;SDS_P1;SDS_P2;PMS_P1;PMS_P2;Temp;Humidity;BMP_temperature;BMP_pressure;BME280_temperature;BME280_humidity;BME280_pressure;Samples;Min_cycle;Max_cycle;Signal;HPM_P1;HPM_P2
2021/08/17 00:00:53;;;;;;;4.80;3.10;;;10.90;99.90;;;;;;493996;241;28494;-70
2021/08/17 00:02:54;;;;;;;3.73;2.73;;;10.90;99.90;;;;;;493946;241;28693;-70
2021/08/17 00:04:55;;;;;;;3.80;2.60;;;10.90;99.90;;;;;;493996;237;28606;-70
2021/08/17 00:06:57;;;;;;;3.57;2.87;;;10.90;99.90;;;;;;493997;241;28029;-70
2021/08/17 00:08:58;;;;;;;4.17;3.20;;;10.80;99.90;;;;;;494028;241;28088;-70
2021/08/17 00:10:59;;;;;;;3.97;2.73;;;10.80;99.90;;;;;;494011;241;28183;-70
2021/08/17 00:13:00;;;;;;;3.20;2.67;;;10.80;99.90;;;;;;494039;241;28067;-70
2021/08/17 00:15:02;;;;;;;3.50;3.00;;;10.90;99.90;;;;;;494028;241;28309;-70
2021/08/17 00:17:03;;;;;;;3.77;2.90;;;10.80;99.90;;;;;;493996;241;27952;-70
2021/08/17 00:19:04;;;;;;;3.20;2.90;;;10.90;99.90;;;;;;494048;241;28250;-70
2021/08/17 00:21:05;;;;;;;4.30;3.03;;;10.90;99.90;;;;;;494005;241;28361;-70
2021/08/17 00:23:07;;;;;;;2.80;2.60;;;10.80;99.90;;;;;;494015;241;28472;-70
2021/08/17 00:25:08;;;;;;;5.60;2.57;;;10.70;99.90;;;;;;494015;241;28745;-70
2021/08/17 00:27:09;;;;;;;3.13;2.80;;;10.70;99.90;;;;;;493960;237;28540;-70
2021/08/17 00:29:10;;;;;;;3.90;2.70;;;10.60;99.90;;;;;;493958;241;28649;-70
2021/08/17 00:31:12;;;;;;;3.50;2.70;;;10.60;99.90;;;;;;493985;237;28671;-70
2021/08/17 00:33:13;;;;;;;3.40;2.70;;;10.60;99.90;;;;;;493995;241;27941;-69
2021/08/17 00:35:14;;;;;;;2.90;2.50;;;10.30;99.90;;;;;;493975;241;28003;-69
2021/08/17 00:37:15;;;;;;;2.53;2.27;;;10.10;99.90;;;;;;493977;241;28044;-70
2021/08/17 00:39:18;;;;;;;2.33;2.13;;;10.10;99.90;;;;;;493995;241;28045;-70
2021/08/17 00:41:19;;;;;;;3.50;2.60;;;10.10;99.90;;;;;;493979;241;27950;-70
2021/08/17 00:43:20;;;;;;;2.80;2.50;;;10.20;99.90;;;;;;493985;241;28127;-70
2021/08/17 00:45:21;;;;;;;2.47;2.27;;;10.20;99.90;;;;;;494003;241;28284;-70
2021/08/17 00:47:23;;;;;;;2.50;2.30;;;10.20;99.90;;;;;;493992;241;28687;-70
2021/08/17 00:49:24;;;;;;;3.93;2.43;;;10.20;99.90;;;;;;494009;241;28519;-70
2021/08/17 00:51:25;;;;;;;2.63;2.43;;;10.20;99.90;;;;;;493811;241;28168;-70
2021/08/17 00:53:26;;;;;;;3.23;2.47;;;10.20;99.90;;;;;;494032;241;27921;-70
2021/08/17 00:55:28;;;;;;;2.60;2.40;;;10.20;99.90;;;;;;494019;241;28046;-70
2021/08/17 00:57:29;;;;;;;3.50;2.90;;;10.20;99.90;;;;;;494054;241;28059;-70
2021/08/17 00:59:30;;;;;;;3.30;2.83;;;10.20;99.90;;;;;;494044;241;27944;-70
2021/08/17 01:01:31;;;;;;;3.10;2.43;;;10.20;99.90;;;;;;494066;241;27920;-70
2021/08/17 01:03:33;;;;;;;2.60;2.40;;;10.20;99.90;;;;;;494045;241;27967;-70
2021/08/17 01:05:34;;;;;;;2.43;2.23;;;10.20;99.90;;;;;;494051;241;27997;-70
2021/08/17 01:07:35;;;;;;;2.33;2.13;;;10.20;99.90;;;;;;494031;241;28005;-70
2021/08/17 01:09:36;;;;;;;6.63;3.13;;;10.10;99.90;;;;;;494009;241;28583;-70
2021/08/17 01:11:38;;;;;;;3.97;2.67;;;10.00;99.90;;;;;;494025;241;28477;-70
2021/08/17 01:13:39;;;;;;;3.40;2.67;;;10.00;99.90;;;;;;494011;241;28472;-70
2021/08/17 01:15:40;;;;;;;2.23;2.03;;;10.00;99.90;;;;;;493996;237;28500;-70
2021/08/17 01:17:41;;;;;;;3.57;2.57;;;10.00;99.90;;;;;;493980;241;28047;-70
2021/08/17 01:19:43;;;;;;;3.00;2.70;;;10.00;99.90;;;;;;493987;241;27969;-70
2021/08/17 01:21:44;;;;;;;2.57;2.37;;;10.00;99.90;;;;;;494027;237;27922;-70
2021/08/17 01:23:45;;;;;;;2.17;2.03;;;10.00;99.90;;;;;;493986;241;28120;-70
2021/08/17 01:25:46;;;;;;;2.77;2.50;;;10.00;99.90;;;;;;493983;241;28040;-70
2021/08/17 01:27:48;;;;;;;2.53;2.33;;;10.00;99.90;;;;;;493986;237;27867;-70
2021/08/17 01:29:49;;;;;;;4.30;2.70;;;10.00;99.90;;;;;;493967;237;28015;-70
2021/08/17 01:31:51;;;;;;;2.30;2.10;;;9.90;99.90;;;;;;493982;241;27828;-70
2021/08/17 01:33:51;;;;;;;5.13;2.77;;;9.90;99.90;;;;;;494007;241;27829;-70
2021/08/17 01:35:53;;;;;;;3.27;2.63;;;9.80;99.90;;;;;;493969;241;28510;-70
2021/08/17 01:37:54;;;;;;;3.10;2.77;;;9.80;99.90;;;;;;494043;241;28439;-69
2021/08/17 01:39:55;;;;;;;2.97;2.67;;;9.80;99.90;;;;;;494015;241;28689;-70
2021/08/17 01:41:56;;;;;;;2.70;2.43;;;9.80;99.90;;;;;;494033;241;28494;-70
2021/08/17 01:43:58;;;;;;;2.60;2.40;;;9.70;99.90;;;;;;494045;241;28412;-69
2021/08/17 01:45:59;;;;;;;3.10;2.43;;;9.60;99.90;;;;;;493985;241;27946;-70
2021/08/17 01:48:00;;;;;;;2.67;2.40;;;9.60;99.90;;;;;;494003;237;27697;-70
2021/08/17 01:50:01;;;;;;;2.70;2.40;;;9.60;99.90;;;;;;493983;241;27826;-69
2021/08/17 01:52:03;;;;;;;2.27;2.17;;;9.60;99.90;;;;;;494050;241;27824;-70
2021/08/17 01:54:04;;;;;;;2.70;2.50;;;9.60;99.90;;;;;;494003;241;27851;-70
2021/08/17 01:56:05;;;;;;;2.47;2.20;;;9.60;99.90;;;;;;494051;241;27510;-70
2021/08/17 01:58:06;;;;;;;3.30;2.67;;;9.50;99.90;;;;;;494010;241;28062;-70
2021/08/17 02:00:08;;;;;;;3.30;2.80;;;9.60;99.90;;;;;;493999;241;27949;-70
2021/08/17 02:02:09;;;;;;;2.63;2.43;;;9.50;99.90;;;;;;494035;241;27949;-70
2021/08/17 02:04:10;;;;;;;2.30;2.10;;;9.50;99.90;;;;;;494009;241;27998;-70
2021/08/17 02:06:11;;;;;;;4.47;2.80;;;9.50;99.90;;;;;;493979;241;28069;-70
2021/08/17 02:08:13;;;;;;;2.40;2.20;;;9.60;99.90;;;;;;493958;241;27975;-70
2021/08/17 02:10:14;;;;;;;5.03;2.57;;;9.60;99.90;;;;;;493961;241;27593;-70
2021/08/17 02:12:15;;;;;;;3.50;2.80;;;9.60;99.90;;;;;;494040;241;27709;-70
2021/08/17 02:14:16;;;;;;;4.00;2.97;;;9.60;99.90;;;;;;494010;241;27907;-70
2021/08/17 02:16:18;;;;;;;3.60;2.73;;;9.60;99.90;;;;;;494000;241;28246;-70
2021/08/17 02:18:19;;;;;;;2.83;2.57;;;9.60;99.90;;;;;;494006;241;28055;-69
2021/08/17 02:20:20;;;;;;;3.13;2.47;;;9.60;99.90;;;;;;493973;241;29168;-70
2021/08/17 02:22:22;;;;;;;4.27;2.90;;;9.60;99.90;;;;;;494012;241;28378;-70
2021/08/17 02:24:23;;;;;;;3.20;2.70;;;9.60;99.90;;;;;;494021;241;28526;-70
2021/08/17 02:26:24;;;;;;;3.63;2.87;;;9.60;99.90;;;;;;494013;241;27913;-70
2021/08/17 02:28:25;;;;;;;3.40;2.40;;;9.60;99.90;;;;;;493994;241;28002;-70
2021/08/17 02:30:27;;;;;;;3.23;2.70;;;9.60;99.90;;;;;;493985;237;27615;-70
2021/08/17 02:32:28;;;;;;;2.90;2.30;;;9.60;99.90;;;;;;494036;241;27557;-70
2021/08/17 02:34:29;;;;;;;4.20;2.97;;;9.60;99.90;;;;;;494049;241;28003;-70
2021/08/17 02:36:30;;;;;;;3.23;2.80;;;9.60;99.90;;;;;;494025;241;27818;-70
2021/08/17 02:38:31;;;;;;;3.40;2.73;;;9.60;99.90;;;;;;493971;241;27626;-70
2021/08/17 02:40:33;;;;;;;3.43;2.80;;;9.60;99.90;;;;;;494046;241;27651;-70
2021/08/17 02:42:34;;;;;;;3.07;2.77;;;9.50;99.90;;;;;;494011;241;28093;-70
2021/08/17 02:44:35;;;;;;;5.27;3.40;;;9.50;99.90;;;;;;494043;241;27635;-70
2021/08/17 02:46:36;;;;;;;4.93;3.43;;;9.50;99.90;;;;;;494023;237;28151;-70
2021/08/17 02:48:38;;;;;;;4.67;3.63;;;9.50;99.90;;;;;;494053;241;27870;-70
2021/08/17 02:50:39;;;;;;;4.47;3.57;;;9.40;99.90;;;;;;494008;241;28035;-70
2021/08/17 02:52:40;;;;;;;4.20;3.63;;;9.50;99.90;;;;;;494013;241;27794;-70
2021/08/17 02:54:41;;;;;;;3.90;3.50;;;9.50;99.90;;;;;;494020;241;28420;-70
2021/08/17 02:56:43;;;;;;;4.77;3.90;;;9.60;99.90;;;;;;494027;241;28522;-70
2021/08/17 02:58:45;;;;;;;5.60;4.20;;;9.50;99.90;;;;;;493975;241;28228;-70
2021/08/17 03:00:46;;;;;;;5.30;3.70;;;9.60;99.90;;;;;;494032;241;28544;-70
2021/08/17 03:02:46;;;;;;;4.90;3.67;;;9.60;99.90;;;;;;494005;241;28192;-70
2021/08/17 03:04:48;;;;;;;4.53;3.83;;;9.50;99.90;;;;;;494004;241;27758;-70
2021/08/17 03:06:49;;;;;;;4.10;3.70;;;9.40;99.90;;;;;;494020;241;27908;-70
2021/08/17 03:08:50;;;;;;;5.87;3.80;;;9.40;99.90;;;;;;493972;241;27958;-70
2021/08/17 03:10:51;;;;;;;6.00;3.83;;;9.30;99.90;;;;;;494011;241;28066;-70
2021/08/17 03:12:53;;;;;;;4.50;3.50;;;9.40;99.90;;;;;;493976;241;28155;-70
2021/08/17 03:14:54;;;;;;;5.00;3.87;;;9.40;99.90;;;;;;494026;241;27973;-70
2021/08/17 03:16:55;;;;;;;4.30;3.20;;;9.50;99.90;;;;;;493997;241;28175;-70
2021/08/17 03:18:56;;;;;;;4.80;3.87;;;9.50;99.90;;;;;;493982;241;27997;-70
2021/08/17 03:20:58;;;;;;;5.47;4.10;;;9.40;99.90;;;;;;493973;241;27912;-70
2021/08/17 03:22:59;;;;;;;6.33;4.43;;;9.50;99.90;;;;;;493980;241;27954;-70
2021/08/17 03:25:00;;;;;;;5.73;3.83;;;9.50;99.90;;;;;;494011;241;28009;-70
2021/08/17 03:27:01;;;;;;;6.03;3.90;;;9.60;99.90;;;;;;494007;241;28037;-70
2021/08/17 03:29:03;;;;;;;7.03;4.43;;;9.50;99.90;;;;;;493998;241;27951;-70
2021/08/17 03:31:05;;;;;;;6.37;3.97;;;9.60;99.90;;;;;;493990;241;27904;-70
2021/08/17 03:33:05;;;;;;;7.43;4.60;;;9.70;99.90;;;;;;493976;241;28809;-70
2021/08/17 03:35:06;;;;;;;8.30;4.33;;;9.70;99.90;;;;;;494020;241;28302;-70
2021/08/17 03:37:08;;;;;;;5.30;4.20;;;9.60;99.90;;;;;;494019;241;28262;-70
2021/08/17 03:39:09;;;;;;;8.57;4.70;;;9.50;99.90;;;;;;494001;241;28308;-70
2021/08/17 03:41:10;;;;;;;8.13;4.90;;;9.60;99.90;;;;;;494043;241;28307;-70
2021/08/17 03:43:11;;;;;;;8.07;4.67;;;9.60;99.90;;;;;;493968;241;27937;-70
2021/08/17 03:45:13;;;;;;;6.13;4.33;;;9.70;99.90;;;;;;494035;241;27745;-70
2021/08/17 03:47:14;;;;;;;6.73;4.47;;;9.70;99.90;;;;;;494045;241;27937;-70
2021/08/17 03:49:15;;;;;;;5.30;4.17;;;9.70;99.90;;;;;;494019;241;28020;-70
2021/08/17 03:51:16;;;;;;;6.00;3.80;;;9.80;99.90;;;;;;494035;241;28081;-70
2021/08/17 03:53:18;;;;;;;6.00;4.30;;;9.80;99.90;;;;;;494021;241;27967;-70
2021/08/17 03:55:20;;;;;;;7.50;4.00;;;9.90;99.90;;;;;;494059;241;28069;-70
2021/08/17 03:57:21;;;;;;;6.00;3.83;;;10.00;99.90;;;;;;494001;241;27973;-70
2021/08/17 03:59:22;;;;;;;5.40;3.87;;;10.10;99.90;;;;;;494018;241;28001;-70
2021/08/17 04:01:24;;;;;;;6.63;3.83;;;10.10;99.90;;;;;;494008;241;28533;-70
2021/08/17 04:03:25;;;;;;;7.47;4.23;;;10.20;99.90;;;;;;494082;241;28631;-71
2021/08/17 04:05:26;;;;;;;6.27;4.17;;;10.20;99.90;;;;;;494041;241;28618;-70
2021/08/17 04:07:27;;;;;;;6.03;4.43;;;10.20;99.90;;;;;;494017;241;28487;-70
2021/08/17 04:09:29;;;;;;;5.73;4.27;;;10.30;99.90;;;;;;494010;241;27932;-70
2021/08/17 04:11:30;;;;;;;6.60;4.40;;;10.30;99.90;;;;;;493977;241;28110;-70
2021/08/17 04:13:31;;;;;;;9.33;4.30;;;10.30;99.90;;;;;;494020;241;28073;-70
2021/08/17 04:15:32;;;;;;;6.53;4.50;;;10.40;99.90;;;;;;494031;241;27954;-70
2021/08/17 04:17:34;;;;;;;8.73;5.53;;;10.40;99.90;;;;;;494025;241;27849;-70
2021/08/17 04:19:38;;;;;;;9.10;5.67;;;10.40;99.90;;;;;;494044;237;27942;-70
2021/08/17 04:21:36;;;;;;;9.87;6.50;;;10.50;99.90;;;;;;493726;241;28305;-70
2021/08/17 04:23:37;;;;;;;10.23;6.70;;;10.50;99.90;;;;;;494034;241;28100;-70
2021/08/17 04:25:39;;;;;;;9.10;5.60;;;10.50;99.90;;;;;;493995;241;28857;-70
2021/08/17 04:27:40;;;;;;;10.80;7.30;;;10.60;99.90;;;;;;494029;241;28691;-70
2021/08/17 04:29:43;;;;;;;12.00;6.37;;;10.60;99.90;;;;;;494000;241;28378;-70
2021/08/17 04:31:42;;;;;;;8.17;5.90;;;10.60;99.90;;;;;;493949;241;28146;-70
2021/08/17 04:33:44;;;;;;;7.37;5.43;;;10.60;99.90;;;;;;494083;241;28275;-70
2021/08/17 04:35:45;;;;;;;11.17;6.50;;;10.60;99.90;;;;;;494014;237;28191;-70
2021/08/17 04:37:46;;;;;;;11.90;6.57;;;10.60;99.90;;;;;;494011;241;28091;-70
2021/08/17 04:39:47;;;;;;;10.17;6.20;;;10.60;99.90;;;;;;494014;241;27930;-70
2021/08/17 04:41:49;;;;;;;10.40;6.57;;;10.70;99.90;;;;;;494040;241;28203;-70
2021/08/17 04:43:50;;;;;;;10.43;6.03;;;10.70;99.90;;;;;;494037;241;28168;-70
2021/08/17 04:45:52;;;;;;;11.83;6.63;;;10.70;99.90;;;;;;493966;241;28168;-70
2021/08/17 04:47:52;;;;;;;11.93;7.50;;;10.70;99.90;;;;;;493984;241;28748;-70
2021/08/17 04:49:54;;;;;;;10.27;6.43;;;10.80;99.90;;;;;;493994;238;29130;-70
2021/08/17 04:51:55;;;;;;;9.90;6.30;;;10.80;99.90;;;;;;494033;241;28039;-70
2021/08/17 04:53:56;;;;;;;9.70;6.57;;;10.80;99.90;;;;;;494016;241;28212;-70
2021/08/17 04:55:57;;;;;;;12.87;6.50;;;10.80;99.90;;;;;;493983;241;28212;-70
2021/08/17 04:57:59;;;;;;;12.07;7.13;;;10.80;99.90;;;;;;493995;241;28035;-70
2021/08/17 05:00:00;;;;;;;11.73;7.00;;;10.90;99.90;;;;;;494044;241;28195;-70
2021/08/17 05:02:01;;;;;;;10.30;6.70;;;10.90;99.90;;;;;;494026;241;28390;-70
2021/08/17 05:04:04;;;;;;;10.07;6.37;;;10.90;99.90;;;;;;494014;241;28247;-70
2021/08/17 05:06:04;;;;;;;11.20;6.90;;;11.00;99.90;;;;;;493924;241;28811;-70
2021/08/17 05:08:05;;;;;;;12.30;7.73;;;11.10;99.90;;;;;;494016;241;28674;-70
2021/08/17 05:10:06;;;;;;;14.00;7.47;;;11.10;99.90;;;;;;494054;241;28367;-70
2021/08/17 05:12:08;;;;;;;11.80;7.37;;;11.20;99.90;;;;;;494031;241;28435;-70
2021/08/17 05:14:09;;;;;;;12.83;7.70;;;11.20;99.90;;;;;;494026;241;28462;-70
2021/08/17 05:16:11;;;;;;;12.87;7.97;;;11.30;99.90;;;;;;493974;241;28434;-70
2021/08/17 05:18:11;;;;;;;14.10;7.73;;;11.30;99.90;;;;;;493958;241;28418;-70
2021/08/17 05:20:14;;;;;;;15.40;7.67;;;11.30;99.90;;;;;;494048;241;28352;-70
2021/08/17 05:22:15;;;;;;;13.80;9.20;;;11.40;99.90;;;;;;493983;241;28839;-70
2021/08/17 05:24:17;;;;;;;13.13;7.93;;;11.40;99.90;;;;;;494053;241;28730;-69
2021/08/17 05:26:18;;;;;;;13.23;8.37;;;11.40;99.90;;;;;;494002;241;28596;-70
2021/08/17 05:28:20;;;;;;;13.27;8.47;;;;;;;;;;494015;241;28941;-70
2021/08/17 05:30:22;;;;;;;12.57;7.70;;;11.50;99.90;;;;;;493984;241;27528;-70
2021/08/17 05:32:24;;;;;;;12.80;7.73;;;;;;;;;;494042;241;29425;-70
2021/08/17 05:34:25;;;;;;;12.73;7.87;;;11.50;99.90;;;;;;494039;237;26626;-70
2021/08/17 05:36:26;;;;;;;14.90;9.30;;;11.60;99.90;;;;;;494015;241;28477;-70
2021/08/17 05:38:28;;;;;;;16.13;8.37;;;11.70;99.90;;;;;;493978;241;28613;-70
2021/08/17 05:40:29;;;;;;;14.63;9.13;;;11.80;99.90;;;;;;494032;241;28673;-70
2021/08/17 05:42:30;;;;;;;12.97;8.57;;;11.80;99.90;;;;;;494025;241;28061;-70
2021/08/17 05:44:32;;;;;;;12.27;8.00;;;11.90;99.90;;;;;;494015;241;28102;-70
2021/08/17 05:46:33;;;;;;;10.87;7.43;;;12.00;99.90;;;;;;493996;241;28402;-70
2021/08/17 05:48:34;;;;;;;13.10;8.60;;;12.00;99.90;;;;;;493995;241;28297;-70
2021/08/17 05:50:35;;;;;;;14.23;8.63;;;11.90;99.90;;;;;;494042;241;28837;-70
2021/08/17 05:52:37;;;;;;;14.93;8.80;;;11.90;99.90;;;;;;494011;241;28650;-70
2021/08/17 05:54:38;;;;;;;16.17;8.87;;;11.80;99.90;;;;;;493967;241;29181;-70
2021/08/17 05:56:39;;;;;;;14.70;8.93;;;11.70;99.90;;;;;;493991;241;28688;-70
2021/08/17 05:58:40;;;;;;;14.63;9.43;;;11.70;99.90;;;;;;494023;237;28543;-70
2021/08/17 06:00:42;;;;;;;16.07;8.87;;;11.70;99.90;;;;;;494032;241;28360;-70
2021/08/17 06:02:43;;;;;;;14.30;8.70;;;11.80;99.90;;;;;;494001;241;28442;-70
2021/08/17 06:04:44;;;;;;;13.60;8.63;;;11.80;99.90;;;;;;493974;241;28858;-70
2021/08/17 06:06:47;;;;;;;14.23;8.67;;;11.90;99.90;;;;;;493952;241;28359;-70
2021/08/17 06:08:47;;;;;;;13.47;9.63;;;11.80;99.90;;;;;;493917;241;28243;-70
2021/08/17 06:10:48;;;;;;;18.77;10.20;;;11.80;99.90;;;;;;493991;241;28875;-70
2021/08/17 06:12:49;;;;;;;17.27;10.00;;;11.70;99.90;;;;;;493976;241;29009;-70
2021/08/17 06:14:50;;;;;;;17.03;10.80;;;11.80;99.90;;;;;;493997;241;28999;-70
2021/08/17 06:16:52;;;;;;;15.63;9.63;;;11.70;99.90;;;;;;494016;241;28043;-70
2021/08/17 06:18:54;;;;;;;17.23;10.50;;;11.80;99.90;;;;;;493999;241;28174;-70
2021/08/17 06:20:54;;;;;;;13.60;9.30;;;11.90;99.90;;;;;;493962;241;28317;-70
2021/08/17 06:22:55;;;;;;;18.00;9.97;;;11.90;99.90;;;;;;493989;241;28058;-70
2021/08/17 06:24:57;;;;;;;16.30;9.53;;;12.00;99.90;;;;;;493994;241;28379;-70
2021/08/17 06:26:58;;;;;;;16.83;10.33;;;12.00;99.90;;;;;;493992;241;28331;-70
2021/08/17 06:28:59;;;;;;;17.30;9.80;;;12.00;99.90;;;;;;494030;241;28627;-70
2021/08/17 06:31:00;;;;;;;16.10;10.50;;;12.10;99.90;;;;;;494015;241;29330;-73
2021/08/17 06:33:02;;;;;;;18.10;10.17;;;12.10;99.90;;;;;;494006;241;28798;-70
2021/08/17 06:35:03;;;;;;;15.13;9.20;;;12.10;99.90;;;;;;493993;241;28355;-70
2021/08/17 06:37:04;;;;;;;14.07;9.53;;;12.10;99.90;;;;;;494029;241;28295;-70
2021/08/17 06:39:05;;;;;;;16.50;10.13;;;12.10;99.90;;;;;;493923;241;28167;-70
2021/08/17 06:41:07;;;;;;;17.67;9.70;;;12.10;99.90;;;;;;494075;241;28228;-70
2021/08/17 06:43:08;;;;;;;14.70;9.37;;;12.20;99.90;;;;;;494002;237;28392;-72
2021/08/17 06:45:09;;;;;;;16.47;10.60;;;12.30;99.90;;;;;;493940;241;28318;-69
2021/08/17 06:47:12;;;;;;;15.83;10.57;;;;;;;;;;494048;241;28892;-70
2021/08/17 06:49:13;;;;;;;15.07;10.17;;;12.40;99.90;;;;;;494005;237;26508;-70
2021/08/17 06:51:14;;;;;;;14.77;10.30;;;12.40;99.90;;;;;;494023;241;28280;-70
2021/08/17 06:53:15;;;;;;;14.87;9.60;;;12.60;99.90;;;;;;493982;241;28381;-70
2021/08/17 06:55:17;;;;;;;18.50;11.07;;;12.60;99.90;;;;;;493807;239;28419;-70
2021/08/17 06:57:18;;;;;;;17.53;10.80;;;12.60;99.90;;;;;;494008;241;28163;-70
2021/08/17 06:59:19;;;;;;;18.67;10.60;;;12.50;99.90;;;;;;493979;241;28710;-70
2021/08/17 07:01:20;;;;;;;17.47;10.30;;;12.50;99.90;;;;;;493979;241;28800;-70
2021/08/17 07:03:22;;;;;;;17.27;11.00;;;12.60;99.90;;;;;;494044;241;28393;-70
2021/08/17 07:05:23;;;;;;;17.33;9.80;;;12.60;99.90;;;;;;494005;241;28409;-70
2021/08/17 07:07:24;;;;;;;14.73;10.40;;;12.70;99.90;;;;;;493990;241;28292;-72
2021/08/17 07:09:26;;;;;;;18.90;11.80;;;12.70;99.90;;;;;;493968;241;28452;-69
2021/08/17 07:11:27;;;;;;;15.43;10.23;;;12.80;99.90;;;;;;493990;241;28566;-71
2021/08/17 07:13:28;;;;;;;16.87;10.87;;;12.80;99.90;;;;;;494012;241;28422;-70
2021/08/17 07:15:29;;;;;;;17.80;10.37;;;12.90;99.90;;;;;;493991;241;29309;-70
2021/08/17 07:17:31;;;;;;;19.87;11.20;;;12.90;99.90;;;;;;494004;241;29292;-70
2021/08/17 07:19:32;;;;;;;21.53;12.70;;;12.90;99.90;;;;;;493976;241;28543;-72
2021/08/17 07:21:33;;;;;;;17.80;11.37;;;13.00;99.90;;;;;;494003;241;28546;-72
2021/08/17 07:23:34;;;;;;;16.20;10.60;;;13.10;99.90;;;;;;493969;241;28812;-71
2021/08/17 07:25:36;;;;;;;19.40;11.90;;;13.20;99.90;;;;;;493997;241;28554;-73
2021/08/17 07:27:37;;;;;;;16.60;10.70;;;13.40;99.90;;;;;;493964;241;28851;-72
2021/08/17 07:29:39;;;;;;;16.23;11.53;;;13.40;99.90;;;;;;493987;241;29431;-71
2021/08/17 07:31:39;;;;;;;17.27;11.03;;;13.20;99.90;;;;;;493995;241;29564;-70
2021/08/17 07:33:41;;;;;;;17.63;11.70;;;13.20;99.90;;;;;;493994;241;28807;-70
2021/08/17 07:35:42;;;;;;;18.53;11.93;;;13.30;99.90;;;;;;494017;241;28845;-70
2021/08/17 07:37:44;;;;;;;21.07;13.10;;;13.50;99.90;;;;;;493995;241;28808;-71
2021/08/17 07:39:44;;;;;;;17.60;12.37;;;13.70;99.90;;;;;;494002;241;28966;-72
2021/08/17 07:41:46;;;;;;;19.57;12.60;;;13.70;99.90;;;;;;494022;241;28852;-71
2021/08/17 07:43:47;;;;;;;23.23;13.30;;;13.90;99.90;;;;;;494000;241;29850;-72
2021/08/17 07:45:48;;;;;;;18.03;12.00;;;13.90;99.90;;;;;;494002;241;29426;-72
2021/08/17 07:47:49;;;;;;;18.87;12.30;;;13.80;99.90;;;;;;493985;241;28878;-72
2021/08/17 07:49:51;;;;;;;19.17;11.40;;;13.80;99.90;;;;;;494016;241;28835;-71
2021/08/17 07:51:52;;;;;;;16.50;11.27;;;13.70;99.90;;;;;;494031;241;28835;-71
2021/08/17 07:53:53;;;;;;;18.70;11.27;;;13.70;99.90;;;;;;494029;241;28927;-71
2021/08/17 07:55:54;;;;;;;17.00;11.50;;;13.50;99.90;;;;;;494025;241;28919;-71
2021/08/17 07:57:56;;;;;;;15.90;11.13;;;13.50;99.90;;;;;;494054;237;29517;-71
2021/08/17 07:59:57;;;;;;;20.20;12.47;;;13.40;99.90;;;;;;494025;241;29692;-71
2021/08/17 08:02:02;;;;;;;18.17;11.60;;;;;;;;;;494033;241;28890;-71
2021/08/17 08:04:02;;;;;;;14.47;11.30;;;13.50;99.90;;;;;;494035;238;26955;-71
2021/08/17 08:06:03;;;;;;;16.40;10.73;;;13.70;99.90;;;;;;494018;241;29385;-71
2021/08/17 08:08:04;;;;;;;17.97;12.17;;;13.70;99.90;;;;;;494050;241;28873;-71
2021/08/17 08:10:06;;;;;;;14.43;10.20;;;13.80;99.90;;;;;;493999;241;28819;-69
2021/08/17 08:12:10;;;;;;;15.23;10.57;;;13.90;99.90;;;;;;493993;241;28836;-72
2021/08/17 08:14:08;;;;;;;18.23;11.70;;;13.90;99.90;;;;;;493779;241;29014;-72
2021/08/17 08:16:09;;;;;;;15.10;10.53;;;14.10;99.90;;;;;;493996;241;29271;-72
2021/08/17 08:18:11;;;;;;;16.10;10.77;;;14.00;99.90;;;;;;494039;241;29340;-72
2021/08/17 08:20:12;;;;;;;15.23;11.23;;;13.80;99.90;;;;;;494025;241;28821;-71
2021/08/17 08:22:13;;;;;;;17.57;9.73;;;13.90;99.90;;;;;;493991;241;28841;-71
2021/08/17 08:24:14;;;;;;;19.00;11.93;;;14.00;99.90;;;;;;494026;241;28862;-71
2021/08/17 08:26:16;;;;;;;17.83;10.60;;;14.00;99.90;;;;;;493995;241;28812;-69
2021/08/17 08:28:17;;;;;;;16.93;11.20;;;13.90;99.90;;;;;;494035;241;28886;-72
2021/08/17 08:30:18;;;;;;;15.03;10.63;;;13.90;99.90;;;;;;493991;241;30245;-72
2021/08/17 08:32:19;;;;;;;17.20;11.30;;;13.80;99.90;;;;;;494021;241;29294;-72
2021/08/17 08:34:21;;;;;;;17.63;10.80;;;14.00;99.90;;;;;;494017;241;28838;-71
2021/08/17 08:36:22;;;;;;;16.40;10.83;;;14.00;99.90;;;;;;493985;241;28797;-72
2021/08/17 08:38:23;;;;;;;18.10;11.50;;;14.00;99.90;;;;;;493949;241;28955;-69
2021/08/17 08:40:25;;;;;;;17.87;10.70;;;14.10;99.90;;;;;;493964;241;28876;-72
2021/08/17 08:42:26;;;;;;;20.87;11.57;;;14.20;99.90;;;;;;493983;241;28919;-72
2021/08/17 08:44:28;;;;;;;17.23;10.90;;;14.00;99.90;;;;;;493958;241;29694;-72
2021/08/17 08:46:28;;;;;;;18.47;11.83;;;14.00;99.90;;;;;;494004;241;29320;-69
2021/08/17 08:48:30;;;;;;;16.30;10.50;;;14.00;99.90;;;;;;493972;241;28945;-70
2021/08/17 08:50:31;;;;;;;15.03;10.00;;;14.00;99.90;;;;;;494017;241;29026;-70
2021/08/17 08:52:32;;;;;;;13.83;9.73;;;14.10;99.90;;;;;;494002;241;28855;-69
2021/08/17 08:54:33;;;;;;;17.57;11.17;;;14.30;99.90;;;;;;494009;241;28854;-70
2021/08/17 08:56:35;;;;;;;13.90;9.90;;;14.40;99.90;;;;;;494039;241;28936;-70
2021/08/17 08:58:36;;;;;;;14.90;10.50;;;14.20;99.90;;;;;;494035;241;28882;-70
2021/08/17 09:00:37;;;;;;;18.57;11.43;;;14.20;99.90;;;;;;494063;241;29322;-70
2021/08/17 09:02:38;;;;;;;17.27;11.10;;;14.20;99.90;;;;;;494072;241;29275;-70
2021/08/17 09:04:40;;;;;;;17.33;10.73;;;14.20;99.90;;;;;;494033;241;28916;-69
2021/08/17 09:06:41;;;;;;;17.27;10.57;;;14.00;99.90;;;;;;494027;241;28822;-70
2021/08/17 09:08:42;;;;;;;16.30;10.80;;;14.10;99.90;;;;;;494007;241;28861;-69
2021/08/17 09:10:43;;;;;;;19.60;10.77;;;14.00;99.90;;;;;;494011;241;28928;-70
2021/08/17 09:12:45;;;;;;;16.80;10.57;;;13.90;99.90;;;;;;494048;241;28872;-70
2021/08/17 09:14:46;;;;;;;17.87;11.40;;;14.00;99.90;;;;;;494039;241;29283;-70
2021/08/17 09:16:47;;;;;;;17.67;11.40;;;13.90;99.90;;;;;;493976;241;29384;-72
2021/08/17 09:18:50;;;;;;;16.30;10.77;;;13.90;99.90;;;;;;493866;241;28810;-71
2021/08/17 09:20:50;;;;;;;15.40;9.67;;;14.10;99.90;;;;;;493946;241;28942;-71
2021/08/17 09:22:51;;;;;;;14.80;11.50;;;14.30;99.90;;;;;;494030;241;28810;-72
2021/08/17 09:24:52;;;;;;;18.57;10.50;;;14.40;99.90;;;;;;494213;239;28796;-71
2021/08/17 09:26:53;;;;;;;17.20;10.97;;;14.50;99.90;;;;;;493990;241;28806;-71
2021/08/17 09:28:55;;;;;;;15.20;10.70;;;14.60;99.90;;;;;;494010;241;29266;-71
2021/08/17 09:30:56;;;;;;;16.67;10.77;;;14.80;99.90;;;;;;494023;241;29294;-70
2021/08/17 09:32:57;;;;;;;15.67;10.10;;;15.10;99.90;;;;;;493997;241;28848;-71
2021/08/17 09:34:58;;;;;;;16.17;10.70;;;15.20;99.90;;;;;;493972;241;28850;-70
2021/08/17 09:37:01;;;;;;;15.80;10.30;;;15.20;99.90;;;;;;493985;241;28826;-70
2021/08/17 09:39:01;;;;;;;14.97;10.07;;;15.10;99.90;;;;;;493971;241;28798;-71
2021/08/17 09:41:02;;;;;;;16.80;11.73;;;15.10;99.90;;;;;;493991;241;28834;-71
2021/08/17 09:43:04;;;;;;;19.70;11.77;;;15.10;99.90;;;;;;493994;241;29362;-71
2021/08/17 09:45:05;;;;;;;19.53;12.30;;;15.10;99.90;;;;;;494015;241;29349;-71
2021/08/17 09:47:06;;;;;;;20.73;11.70;;;15.10;99.90;;;;;;494003;241;29100;-72
2021/08/17 09:49:07;;;;;;;22.93;11.80;;;15.20;99.90;;;;;;494009;241;29293;-70
2021/08/17 09:51:09;;;;;;;20.30;12.67;;;15.30;99.90;;;;;;494041;241;28853;-70
2021/08/17 09:53:10;;;;;;;15.60;10.87;;;15.20;99.90;;;;;;494002;241;28800;-70
2021/08/17 09:55:11;;;;;;;14.53;9.90;;;15.40;99.90;;;;;;493973;241;28865;-69
2021/08/17 09:57:12;;;;;;;16.47;11.77;;;15.50;99.90;;;;;;494005;237;29237;-71
2021/08/17 09:59:14;;;;;;;15.97;10.73;;;15.80;99.90;;;;;;494014;241;29365;-70
2021/08/17 10:01:15;;;;;;;15.20;10.20;;;16.00;99.90;;;;;;494009;241;29424;-71
2021/08/17 10:03:16;;;;;;;17.80;11.17;;;16.20;99.90;;;;;;494018;241;28807;-69
2021/08/17 10:05:17;;;;;;;14.07;10.10;;;16.10;99.90;;;;;;494024;241;29202;-70
2021/08/17 10:07:19;;;;;;;14.47;9.67;;;16.00;99.90;;;;;;494024;241;29197;-73
2021/08/17 10:09:20;;;;;;;15.90;10.50;;;16.10;99.90;;;;;;493987;241;28788;-71
2021/08/17 10:11:21;;;;;;;15.77;10.80;;;16.10;99.90;;;;;;493992;241;28942;-70
2021/08/17 10:13:22;;;;;;;14.33;9.83;;;15.90;99.90;;;;;;493960;241;29295;-72
2021/08/17 10:15:24;;;;;;;15.07;9.10;;;15.80;99.90;;;;;;493962;241;29380;-72
2021/08/17 10:17:25;;;;;;;14.00;9.20;;;15.80;99.90;;;;;;494039;241;28850;-72
2021/08/17 10:19:26;;;;;;;16.57;10.27;;;15.40;99.90;;;;;;494003;241;28947;-71
2021/08/17 10:21:27;;;;;;;13.80;9.83;;;15.40;99.90;;;;;;493994;241;29236;-72
2021/08/17 10:23:29;;;;;;;14.20;8.97;;;15.30;99.90;;;;;;493982;241;28913;-71
2021/08/17 10:25:30;;;;;;;14.83;8.67;;;15.40;99.90;;;;;;493979;241;28945;-72